sensor_id;sensor_type;location;lat;lon;timestamp;P1;durP1;ratioP1;P2;durP2;ratioP2
44824;SDS011;30542;47.928;2.138;2022-11-20T00:04:03;2.47;;;1.88;;
44824;SDS011;30542;47.928;2.138;2022-11-20T00:09:04;3.13;;;2.00;;
44824;SDS011;30542;47.928;2.138;2022-11-20T00:14:05;5.28;;;2.42;;
44824;SDS011;30542;47.928;2.138;2022-11-20T00:19:05;3.57;;;2.17;;
44824;SDS011;30542;47.928;2.138;2022-11-20T00:24:07;6.03;;;2.55;;
44824;SDS011;30542;47.928;2.138;2022-11-20T00:29:09;3.10;;;1.77;;
44824;SDS011;30542;47.928;2.138;2022-11-20T00:34:10;2.53;;;1.70;;
44824;SDS011;30542;47.928;2.138;2022-11-20T00:39:10;2.97;;;2.27;;
44824;SDS011;30542;47.928;2.138;2022-11-20T00:44:11;3.40;;;1.73;;
44824;SDS011;30542;47.928;2.138;2022-11-20T00:49:11;2.57;;;1.90;;
44824;SDS011;30542;47.928;2.138;2022-11-20T00:54:11;2.43;;;2.00;;
44824;SDS011;30542;47.928;2.138;2022-11-20T00:59:12;2.63;;;1.93;;
44824;SDS011;30542;47.928;2.138;2022-11-20T01:04:12;2.22;;;1.73;;
44824;SDS011;30542;47.928;2.138;2022-11-20T01:09:13;3.17;;;1.83;;
44824;SDS011;30542;47.928;2.138;2022-11-20T01:14:16;2.63;;;2.03;;
44824;SDS011;30542;47.928;2.138;2022-11-20T01:19:22;2.50;;;2.08;;
44824;SDS011;30542;47.928;2.138;2022-11-20T01:24:23;2.70;;;1.90;;
44824;SDS011;30542;47.928;2.138;2022-11-20T01:29:24;2.43;;;1.70;;
44824;SDS011;30542;47.928;2.138;2022-11-20T01:34:24;2.15;;;1.63;;
44824;SDS011;30542;47.928;2.138;2022-11-20T01:39:25;2.13;;;1.52;;
44824;SDS011;30542;47.928;2.138;2022-11-20T01:54:50;3.30;;;1.92;;
44824;SDS011;30542;47.928;2.138;2022-11-20T02:00:00;1.75;;;1.40;;
44824;SDS011;30542;47.928;2.138;2022-11-20T02:05:14;3.28;;;1.45;;
44824;SDS011;30542;47.928;2.138;2022-11-20T02:10:22;2.28;;;1.88;;
44824;SDS011;30542;47.928;2.138;2022-11-20T02:15:23;1.65;;;1.25;;
44824;SDS011;30542;47.928;2.138;2022-11-20T02:20:24;3.23;;;1.70;;
44824;SDS011;30542;47.928;2.138;2022-11-20T02:25:24;2.60;;;1.20;;
44824;SDS011;30542;47.928;2.138;2022-11-20T02:30:27;1.88;;;1.38;;
44824;SDS011;30542;47.928;2.138;2022-11-20T02:40:28;3.15;;;1.63;;
44824;SDS011;30542;47.928;2.138;2022-11-20T02:45:29;1.98;;;1.63;;
44824;SDS011;30542;47.928;2.138;2022-11-20T02:50:29;2.00;;;1.63;;
44824;SDS011;30542;47.928;2.138;2022-11-20T02:55:30;1.50;;;1.40;;
44824;SDS011;30542;47.928;2.138;2022-11-20T03:00:30;2.08;;;1.25;;
44824;SDS011;30542;47.928;2.138;2022-11-20T03:05:31;1.52;;;1.25;;
44824;SDS011;30542;47.928;2.138;2022-11-20T03:10:32;1.83;;;1.20;;
44824;SDS011;30542;47.928;2.138;2022-11-20T03:15:32;1.63;;;1.07;;
44824;SDS011;30542;47.928;2.138;2022-11-20T03:20:33;1.70;;;1.17;;
44824;SDS011;30542;47.928;2.138;2022-11-20T03:25:34;1.75;;;1.13;;
44824;SDS011;30542;47.928;2.138;2022-11-20T03:30:37;2.38;;;1.30;;
44824;SDS011;30542;47.928;2.138;2022-11-20T03:35:38;1.93;;;1.20;;
44824;SDS011;30542;47.928;2.138;2022-11-20T03:40:39;1.60;;;1.15;;
44824;SDS011;30542;47.928;2.138;2022-11-20T03:45:39;1.63;;;1.23;;
44824;SDS011;30542;47.928;2.138;2022-11-20T03:50:39;1.70;;;1.20;;
44824;SDS011;30542;47.928;2.138;2022-11-20T03:55:40;1.67;;;1.43;;
44824;SDS011;30542;47.928;2.138;2022-11-20T04:00:42;1.65;;;1.20;;
44824;SDS011;30542;47.928;2.138;2022-11-20T04:05:42;1.53;;;1.07;;
44824;SDS011;30542;47.928;2.138;2022-11-20T04:10:42;2.03;;;1.03;;
44824;SDS011;30542;47.928;2.138;2022-11-20T04:15:43;1.73;;;1.27;;
44824;SDS011;30542;47.928;2.138;2022-11-20T04:20:43;1.10;;;0.80;;
44824;SDS011;30542;47.928;2.138;2022-11-20T04:25:43;1.57;;;0.83;;
44824;SDS011;30542;47.928;2.138;2022-11-20T04:30:44;1.77;;;1.20;;
44824;SDS011;30542;47.928;2.138;2022-11-20T04:35:44;1.67;;;1.10;;
44824;SDS011;30542;47.928;2.138;2022-11-20T04:40:47;1.30;;;0.90;;
44824;SDS011;30542;47.928;2.138;2022-11-20T04:45:51;1.20;;;0.97;;
44824;SDS011;30542;47.928;2.138;2022-11-20T04:50:53;1.35;;;0.80;;
44824;SDS011;30542;47.928;2.138;2022-11-20T04:55:59;1.33;;;0.80;;
44824;SDS011;30542;47.928;2.138;2022-11-20T05:01:06;1.02;;;0.80;;
44824;SDS011;30542;47.928;2.138;2022-11-20T05:06:11;1.45;;;1.00;;
44824;SDS011;30542;47.928;2.138;2022-11-20T05:11:14;2.40;;;1.13;;
44824;SDS011;30542;47.928;2.138;2022-11-20T05:16:20;1.13;;;0.88;;
44824;SDS011;30542;47.928;2.138;2022-11-20T05:21:22;1.45;;;0.95;;
44824;SDS011;30542;47.928;2.138;2022-11-20T05:26:23;2.25;;;0.90;;
44824;SDS011;30542;47.928;2.138;2022-11-20T05:31:24;1.77;;;0.85;;
44824;SDS011;30542;47.928;2.138;2022-11-20T05:36:25;1.10;;;0.95;;
44824;SDS011;30542;47.928;2.138;2022-11-20T05:41:25;1.10;;;0.70;;
44824;SDS011;30542;47.928;2.138;2022-11-20T05:46:26;1.25;;;0.90;;
44824;SDS011;30542;47.928;2.138;2022-11-20T05:51:26;1.05;;;0.70;;
44824;SDS011;30542;47.928;2.138;2022-11-20T05:56:27;1.13;;;0.90;;
44824;SDS011;30542;47.928;2.138;2022-11-20T06:01:28;3.03;;;0.80;;
44824;SDS011;30542;47.928;2.138;2022-11-20T06:06:28;2.10;;;0.80;;
44824;SDS011;30542;47.928;2.138;2022-11-20T06:11:28;2.13;;;1.17;;
44824;SDS011;30542;47.928;2.138;2022-11-20T06:16:29;1.43;;;1.00;;
44824;SDS011;30542;47.928;2.138;2022-11-20T06:21:29;1.73;;;0.70;;
44824;SDS011;30542;47.928;2.138;2022-11-20T06:26:30;1.47;;;0.60;;
44824;SDS011;30542;47.928;2.138;2022-11-20T06:31:30;0.77;;;0.77;;
44824;SDS011;30542;47.928;2.138;2022-11-20T06:36:34;1.17;;;0.73;;
44824;SDS011;30542;47.928;2.138;2022-11-20T06:41:35;1.53;;;0.90;;
44824;SDS011;30542;47.928;2.138;2022-11-20T06:46:35;1.00;;;0.50;;
44824;SDS011;30542;47.928;2.138;2022-11-20T06:51:35;0.90;;;0.60;;
44824;SDS011;30542;47.928;2.138;2022-11-20T06:56:36;0.93;;;0.60;;
44824;SDS011;30542;47.928;2.138;2022-11-20T07:01:36;1.93;;;0.70;;
44824;SDS011;30542;47.928;2.138;2022-11-20T07:06:37;0.90;;;0.60;;
44824;SDS011;30542;47.928;2.138;2022-11-20T07:11:37;1.00;;;0.70;;
44824;SDS011;30542;47.928;2.138;2022-11-20T07:16:37;1.47;;;0.70;;
44824;SDS011;30542;47.928;2.138;2022-11-20T07:21:38;1.17;;;0.67;;
44824;SDS011;30542;47.928;2.138;2022-11-20T07:26:38;1.33;;;0.63;;
44824;SDS011;30542;47.928;2.138;2022-11-20T07:31:38;1.90;;;0.90;;
44824;SDS011;30542;47.928;2.138;2022-11-20T07:36:39;2.23;;;0.60;;
44824;SDS011;30542;47.928;2.138;2022-11-20T07:41:39;3.20;;;0.70;;
44824;SDS011;30542;47.928;2.138;2022-11-20T07:46:42;1.23;;;0.57;;
44824;SDS011;30542;47.928;2.138;2022-11-20T07:51:43;1.30;;;0.68;;
44824;SDS011;30542;47.928;2.138;2022-11-20T07:56:43;0.90;;;0.57;;
44824;SDS011;30542;47.928;2.138;2022-11-20T08:01:44;1.38;;;0.60;;
44824;SDS011;30542;47.928;2.138;2022-11-20T08:06:44;1.30;;;0.60;;
44824;SDS011;30542;47.928;2.138;2022-11-20T08:11:44;1.80;;;0.60;;
44824;SDS011;30542;47.928;2.138;2022-11-20T08:17:03;1.70;;;0.55;;
44824;SDS011;30542;47.928;2.138;2022-11-20T08:22:03;1.03;;;0.63;;
44824;SDS011;30542;47.928;2.138;2022-11-20T08:27:04;1.17;;;0.57;;
44824;SDS011;30542;47.928;2.138;2022-11-20T08:32:04;0.97;;;0.60;;
44824;SDS011;30542;47.928;2.138;2022-11-20T08:37:04;1.10;;;0.60;;
44824;SDS011;30542;47.928;2.138;2022-11-20T08:42:07;3.70;;;0.37;;
44824;SDS011;30542;47.928;2.138;2022-11-20T08:47:08;3.42;;;0.70;;
44824;SDS011;30542;47.928;2.138;2022-11-20T08:52:08;3.57;;;0.93;;
44824;SDS011;30542;47.928;2.138;2022-11-20T08:57:09;2.80;;;0.90;;
44824;SDS011;30542;47.928;2.138;2022-11-20T09:02:09;3.43;;;0.63;;
44824;SDS011;30542;47.928;2.138;2022-11-20T09:07:09;4.43;;;1.03;;
44824;SDS011;30542;47.928;2.138;2022-11-20T09:12:10;4.03;;;0.80;;
44824;SDS011;30542;47.928;2.138;2022-11-20T09:17:10;8.00;;;1.00;;
44824;SDS011;30542;47.928;2.138;2022-11-20T09:22:13;7.90;;;0.93;;
44824;SDS011;30542;47.928;2.138;2022-11-20T09:27:13;11.90;;;1.45;;
44824;SDS011;30542;47.928;2.138;2022-11-20T09:32:14;8.52;;;1.63;;
44824;SDS011;30542;47.928;2.138;2022-11-20T09:37:14;5.30;;;1.30;;
44824;SDS011;30542;47.928;2.138;2022-11-20T09:42:22;10.23;;;1.23;;
44824;SDS011;30542;47.928;2.138;2022-11-20T10:03:36;4.55;;;1.55;;
44824;SDS011;30542;47.928;2.138;2022-11-20T10:08:43;8.55;;;1.48;;
44824;SDS011;30542;47.928;2.138;2022-11-20T10:13:52;3.00;;;0.87;;
44824;SDS011;30542;47.928;2.138;2022-11-20T10:24:46;3.45;;;0.90;;
44824;SDS011;30542;47.928;2.138;2022-11-20T10:29:52;5.47;;;1.08;;
44824;SDS011;30542;47.928;2.138;2022-11-20T10:35:14;3.40;;;1.20;;
44824;SDS011;30542;47.928;2.138;2022-11-20T10:40:26;5.28;;;0.85;;
44824;SDS011;30542;47.928;2.138;2022-11-20T10:50:36;2.50;;;0.75;;
44824;SDS011;30542;47.928;2.138;2022-11-20T11:00:41;5.13;;;1.13;;
44824;SDS011;30542;47.928;2.138;2022-11-20T11:05:48;3.65;;;1.10;;
44824;SDS011;30542;47.928;2.138;2022-11-20T11:10:57;5.65;;;1.48;;
44824;SDS011;30542;47.928;2.138;2022-11-20T11:16:01;13.27;;;2.50;;
44824;SDS011;30542;47.928;2.138;2022-11-20T11:21:03;15.45;;;3.70;;
44824;SDS011;30542;47.928;2.138;2022-11-20T11:26:07;11.75;;;4.78;;
44824;SDS011;30542;47.928;2.138;2022-11-20T11:31:35;11.40;;;3.65;;
44824;SDS011;30542;47.928;2.138;2022-11-20T11:36:35;11.95;;;4.25;;
44824;SDS011;30542;47.928;2.138;2022-11-20T11:41:36;8.25;;;3.67;;
44824;SDS011;30542;47.928;2.138;2022-11-20T11:46:36;10.65;;;3.40;;
44824;SDS011;30542;47.928;2.138;2022-11-20T11:57:15;9.63;;;3.80;;
44824;SDS011;30542;47.928;2.138;2022-11-20T12:07:43;5.60;;;3.07;;
44824;SDS011;30542;47.928;2.138;2022-11-20T12:12:49;8.65;;;3.85;;
44824;SDS011;30542;47.928;2.138;2022-11-20T12:17:54;6.18;;;3.45;;
44824;SDS011;30542;47.928;2.138;2022-11-20T12:23:14;6.83;;;3.50;;
44824;SDS011;30542;47.928;2.138;2022-11-20T12:55:45;3.38;;;2.38;;
44824;SDS011;30542;47.928;2.138;2022-11-20T13:00:56;3.97;;;3.08;;
44824;SDS011;30542;47.928;2.138;2022-11-20T13:06:17;3.20;;;2.50;;
44824;SDS011;30542;47.928;2.138;2022-11-20T13:21:44;4.10;;;2.72;;
44824;SDS011;30542;47.928;2.138;2022-11-20T13:26:46;4.28;;;3.00;;
44824;SDS011;30542;47.928;2.138;2022-11-20T13:31:47;4.00;;;3.10;;
44824;SDS011;30542;47.928;2.138;2022-11-20T13:36:49;5.38;;;3.08;;
44824;SDS011;30542;47.928;2.138;2022-11-20T13:42:34;2.83;;;2.60;;
44824;SDS011;30542;47.928;2.138;2022-11-20T13:47:22;4.40;;;2.80;;
44824;SDS011;30542;47.928;2.138;2022-11-20T13:52:37;2.50;;;2.28;;
44824;SDS011;30542;47.928;2.138;2022-11-20T14:02:59;3.42;;;2.13;;
44824;SDS011;30542;47.928;2.138;2022-11-20T14:08:02;2.35;;;2.15;;
44824;SDS011;30542;47.928;2.138;2022-11-20T14:13:18;2.53;;;2.33;;
44824;SDS011;30542;47.928;2.138;2022-11-20T14:18:20;2.75;;;2.50;;
44824;SDS011;30542;47.928;2.138;2022-11-20T14:23:25;2.75;;;2.45;;
44824;SDS011;30542;47.928;2.138;2022-11-20T14:28:27;3.25;;;2.60;;
44824;SDS011;30542;47.928;2.138;2022-11-20T14:33:29;2.97;;;2.40;;
44824;SDS011;30542;47.928;2.138;2022-11-20T14:38:33;2.15;;;1.95;;
44824;SDS011;30542;47.928;2.138;2022-11-20T14:43:33;2.03;;;1.75;;
44824;SDS011;30542;47.928;2.138;2022-11-20T14:48:43;2.55;;;1.85;;
44824;SDS011;30542;47.928;2.138;2022-11-20T14:53:46;2.55;;;2.00;;
44824;SDS011;30542;47.928;2.138;2022-11-20T14:58:54;2.77;;;1.73;;
44824;SDS011;30542;47.928;2.138;2022-11-20T15:04:14;2.08;;;1.65;;
44824;SDS011;30542;47.928;2.138;2022-11-20T15:09:14;2.38;;;1.58;;
44824;SDS011;30542;47.928;2.138;2022-11-20T15:14:15;1.73;;;1.38;;
44824;SDS011;30542;47.928;2.138;2022-11-20T15:19:16;3.50;;;2.00;;
44824;SDS011;30542;47.928;2.138;2022-11-20T15:24:20;3.08;;;1.65;;
44824;SDS011;30542;47.928;2.138;2022-11-20T15:29:20;3.40;;;2.07;;
44824;SDS011;30542;47.928;2.138;2022-11-20T15:34:26;3.58;;;1.75;;
44824;SDS011;30542;47.928;2.138;2022-11-20T15:39:27;1.98;;;1.60;;
44824;SDS011;30542;47.928;2.138;2022-11-20T15:44:27;2.88;;;1.80;;
44824;SDS011;30542;47.928;2.138;2022-11-20T15:49:28;2.03;;;1.27;;
44824;SDS011;30542;47.928;2.138;2022-11-20T15:54:28;1.97;;;1.47;;
44824;SDS011;30542;47.928;2.138;2022-11-20T15:59:28;2.27;;;1.90;;
44824;SDS011;30542;47.928;2.138;2022-11-20T16:04:29;3.13;;;1.92;;
44824;SDS011;30542;47.928;2.138;2022-11-20T16:09:29;1.93;;;1.63;;
44824;SDS011;30542;47.928;2.138;2022-11-20T16:14:30;3.13;;;1.65;;
44824;SDS011;30542;47.928;2.138;2022-11-20T16:19:49;3.10;;;1.92;;
44824;SDS011;30542;47.928;2.138;2022-11-20T16:24:49;2.80;;;2.30;;
44824;SDS011;30542;47.928;2.138;2022-11-20T16:29:51;3.10;;;2.00;;
44824;SDS011;30542;47.928;2.138;2022-11-20T16:34:51;1.50;;;1.30;;
44824;SDS011;30542;47.928;2.138;2022-11-20T16:39:52;3.30;;;1.97;;
44824;SDS011;30542;47.928;2.138;2022-11-20T16:44:52;2.50;;;1.70;;
44824;SDS011;30542;47.928;2.138;2022-11-20T16:49:52;2.67;;;1.70;;
44824;SDS011;30542;47.928;2.138;2022-11-20T16:54:53;2.17;;;1.70;;
44824;SDS011;30542;47.928;2.138;2022-11-20T16:59:53;3.23;;;1.97;;
44824;SDS011;30542;47.928;2.138;2022-11-20T17:04:54;2.47;;;2.13;;
44824;SDS011;30542;47.928;2.138;2022-11-20T17:09:54;3.23;;;1.93;;
44824;SDS011;30542;47.928;2.138;2022-11-20T17:14:55;2.97;;;1.83;;
44824;SDS011;30542;47.928;2.138;2022-11-20T17:19:55;2.20;;;1.63;;
44824;SDS011;30542;47.928;2.138;2022-11-20T17:24:55;2.97;;;1.70;;
44824;SDS011;30542;47.928;2.138;2022-11-20T17:29:56;3.88;;;1.85;;
44824;SDS011;30542;47.928;2.138;2022-11-20T17:34:57;11.13;;;2.10;;
44824;SDS011;30542;47.928;2.138;2022-11-20T17:39:58;4.57;;;1.88;;
44824;SDS011;30542;47.928;2.138;2022-11-20T17:44:59;3.37;;;2.43;;
44824;SDS011;30542;47.928;2.138;2022-11-20T17:49:59;4.33;;;2.13;;
44824;SDS011;30542;47.928;2.138;2022-11-20T17:54:59;3.80;;;2.17;;
44824;SDS011;30542;47.928;2.138;2022-11-20T18:00:00;2.43;;;2.20;;
44824;SDS011;30542;47.928;2.138;2022-11-20T18:05:00;4.03;;;2.23;;
44824;SDS011;30542;47.928;2.138;2022-11-20T18:10:00;4.80;;;2.13;;
44824;SDS011;30542;47.928;2.138;2022-11-20T18:15:01;3.67;;;2.10;;
44824;SDS011;30542;47.928;2.138;2022-11-20T18:20:01;4.82;;;2.70;;
44824;SDS011;30542;47.928;2.138;2022-11-20T18:25:02;2.97;;;2.03;;
44824;SDS011;30542;47.928;2.138;2022-11-20T18:30:04;3.60;;;2.03;;
44824;SDS011;30542;47.928;2.138;2022-11-20T18:35:05;5.25;;;2.22;;
44824;SDS011;30542;47.928;2.138;2022-11-20T18:40:06;3.70;;;1.98;;
44824;SDS011;30542;47.928;2.138;2022-11-20T18:45:07;3.83;;;2.20;;
44824;SDS011;30542;47.928;2.138;2022-11-20T18:50:08;3.97;;;2.25;;
44824;SDS011;30542;47.928;2.138;2022-11-20T18:55:08;3.85;;;2.08;;
44824;SDS011;30542;47.928;2.138;2022-11-20T19:00:10;3.83;;;3.17;;
44824;SDS011;30542;47.928;2.138;2022-11-20T19:05:11;5.57;;;2.90;;
44824;SDS011;30542;47.928;2.138;2022-11-20T19:10:15;4.50;;;2.80;;
44824;SDS011;30542;47.928;2.138;2022-11-20T19:15:17;6.95;;;3.25;;
44824;SDS011;30542;47.928;2.138;2022-11-20T19:20:18;5.43;;;3.30;;
44824;SDS011;30542;47.928;2.138;2022-11-20T19:25:19;6.90;;;4.03;;
44824;SDS011;30542;47.928;2.138;2022-11-20T19:30:19;6.53;;;3.13;;
44824;SDS011;30542;47.928;2.138;2022-11-20T19:35:20;4.47;;;3.03;;
44824;SDS011;30542;47.928;2.138;2022-11-20T19:40:20;4.93;;;2.90;;
44824;SDS011;30542;47.928;2.138;2022-11-20T19:45:20;5.27;;;2.77;;
44824;SDS011;30542;47.928;2.138;2022-11-20T19:50:21;5.80;;;3.00;;
44824;SDS011;30542;47.928;2.138;2022-11-20T19:55:21;4.43;;;2.87;;
44824;SDS011;30542;47.928;2.138;2022-11-20T20:00:21;4.90;;;2.73;;
44824;SDS011;30542;47.928;2.138;2022-11-20T20:05:22;4.73;;;2.23;;
44824;SDS011;30542;47.928;2.138;2022-11-20T20:10:22;4.33;;;2.40;;
44824;SDS011;30542;47.928;2.138;2022-11-20T20:15:23;5.50;;;2.43;;
44824;SDS011;30542;47.928;2.138;2022-11-20T20:20:23;5.43;;;2.47;;
44824;SDS011;30542;47.928;2.138;2022-11-20T20:25:24;5.72;;;2.20;;
44824;SDS011;30542;47.928;2.138;2022-11-20T20:30:24;5.03;;;2.47;;
44824;SDS011;30542;47.928;2.138;2022-11-20T20:35:25;5.00;;;3.13;;
44824;SDS011;30542;47.928;2.138;2022-11-20T20:40:25;4.97;;;3.33;;
44824;SDS011;30542;47.928;2.138;2022-11-20T20:45:25;8.63;;;3.95;;
44824;SDS011;30542;47.928;2.138;2022-11-20T20:50:26;6.53;;;3.58;;
44824;SDS011;30542;47.928;2.138;2022-11-20T20:55:26;5.53;;;2.97;;
44824;SDS011;30542;47.928;2.138;2022-11-20T21:00:27;7.67;;;3.50;;
44824;SDS011;30542;47.928;2.138;2022-11-20T21:05:27;6.63;;;3.37;;
44824;SDS011;30542;47.928;2.138;2022-11-20T21:10:27;5.57;;;3.50;;
44824;SDS011;30542;47.928;2.138;2022-11-20T21:15:29;5.82;;;3.33;;
44824;SDS011;30542;47.928;2.138;2022-11-20T21:20:29;5.33;;;2.47;;
44824;SDS011;30542;47.928;2.138;2022-11-20T21:25:48;5.70;;;2.17;;
44824;SDS011;30542;47.928;2.138;2022-11-20T21:30:49;6.80;;;2.67;;
44824;SDS011;30542;47.928;2.138;2022-11-20T21:35:49;5.33;;;2.60;;
44824;SDS011;30542;47.928;2.138;2022-11-20T21:40:49;4.00;;;2.23;;
44824;SDS011;30542;47.928;2.138;2022-11-20T21:45:50;5.27;;;2.30;;
44824;SDS011;30542;47.928;2.138;2022-11-20T21:50:51;4.88;;;2.30;;
44824;SDS011;30542;47.928;2.138;2022-11-20T21:55:54;3.93;;;1.80;;
44824;SDS011;30542;47.928;2.138;2022-11-20T22:00:56;4.75;;;1.70;;
44824;SDS011;30542;47.928;2.138;2022-11-20T22:05:56;6.43;;;2.67;;
44824;SDS011;30542;47.928;2.138;2022-11-20T22:10:59;5.78;;;2.05;;
44824;SDS011;30542;47.928;2.138;2022-11-20T22:16:01;5.50;;;2.22;;
44824;SDS011;30542;47.928;2.138;2022-11-20T22:21:04;4.03;;;1.63;;
44824;SDS011;30542;47.928;2.138;2022-11-20T22:26:12;4.88;;;1.92;;
44824;SDS011;30542;47.928;2.138;2022-11-20T22:31:14;3.67;;;1.67;;
44824;SDS011;30542;47.928;2.138;2022-11-20T22:36:16;5.22;;;1.70;;
44824;SDS011;30542;47.928;2.138;2022-11-20T22:46:26;3.35;;;1.42;;
44824;SDS011;30542;47.928;2.138;2022-11-20T22:51:29;4.15;;;1.67;;
44824;SDS011;30542;47.928;2.138;2022-11-20T22:56:32;6.38;;;2.38;;
44824;SDS011;30542;47.928;2.138;2022-11-20T23:01:33;4.70;;;1.88;;
44824;SDS011;30542;47.928;2.138;2022-11-20T23:06:35;4.07;;;1.83;;
44824;SDS011;30542;47.928;2.138;2022-11-20T23:11:36;4.40;;;1.48;;
44824;SDS011;30542;47.928;2.138;2022-11-20T23:16:36;4.43;;;1.30;;
44824;SDS011;30542;47.928;2.138;2022-11-20T23:21:38;4.22;;;1.38;;
44824;SDS011;30542;47.928;2.138;2022-11-20T23:26:40;3.75;;;1.52;;
44824;SDS011;30542;47.928;2.138;2022-11-20T23:31:40;4.68;;;1.70;;
44824;SDS011;30542;47.928;2.138;2022-11-20T23:36:41;3.17;;;1.40;;
44824;SDS011;30542;47.928;2.138;2022-11-20T23:41:41;6.67;;;1.43;;
44824;SDS011;30542;47.928;2.138;2022-11-20T23:46:41;5.40;;;1.77;;
44824;SDS011;30542;47.928;2.138;2022-11-20T23:51:42;3.50;;;1.40;;
44824;SDS011;30542;47.928;2.138;2022-11-20T23:56:42;4.93;;;1.43;;
